CZEM/ZEM METAR and TAF weather

Enter ICAO airport designator
Station Type Date Time Source
CZEM METAR 2019/08/21 20:00 UTC NOAA

CZEM 212000Z 32009KT 15SM FEW040 FEW160 SCT280 17/11 A2984 RMK SC1AC1CI1 LAST STFD OBS/NEXT 221300 UTC SLP107 DENSITY ALT 400FT


Station Type Date Time Source
CZEM Decoded METAR 2019/08/21 20:00 UTC NOAA

Station name not available
Aug 21, 2019 - 04:00 PM EDT / 2019.08.21 2000 UTC
Wind: from the NW (320 degrees) at 10 MPH (9 KT):0
Visibility: 15 mile(s):0
Sky conditions: partly cloudy
Temperature: 62 F (17 C)
Dew Point: 51 F (11 C)
Relative Humidity: 67%
Pressure (altimeter): 29.84 in. Hg (1010 hPa)
ob: CZEM 212000Z 32009KT 15SM FEW040 FEW160 SCT280 17/11 A2984 RMK SC1AC1CI1 LAST STFD OBS/NEXT 221300 UTC SLP107 DENSITY ALT 400FT
cycle: 20

Station Type Date Time Source
CZEM TAF UTC NOAA

Error!

Example: see airport list